Terminal Aerodrome Forecast
Issued by NWS

Home | Current Version | Previous Version | Text Only | Print | Product List | Glossary On
Versions: 1 2 3 4 5 6 7 8 9 10 11 12 13 14
000
FTUS45 KTFX 020500
TAFGTF
TAF
KGTF 020520Z 0206/0306 22011KT P6SM SCT120
     FM020900 32013G23KT P6SM SCT050 BKN080
     FM021000 35015G25KT P6SM VCSH SCT035 OVC050
      TEMPO 0210/0212 5SM -SHRASN BR BKN025
     FM021200 35010KT P6SM -RASN SCT020 OVC035
      TEMPO 0212/0216 36015G25KT 3SM -RASN BR BKN015
     FM021900 32011KT P6SM VCSH SCT025 BKN040
     FM030000 26008KT P6SM SCT050=

USA.gov is the U.S. government's official web portal to all federal, state and local government web resources and services.